Талаги

Карта отелей и гостиниц, располагающихся рядом с аэропортом Талаги :

Талаги
Архангельск
Архангельская область 64° 36' 0.9" N, 40° 42' 59.4" E
Код аэродрома ИКАО
ULAA
Код аэродрома RU
УЛАА
Координаты
N64.60025° E040.71650°
Превышение над уровнем моря
19
Основная полоса
08/26
Курс магнитный
081/261
Длина основной ВПП
2500
Ширина основной ВПП
44
Покрытие основной ВПП
Твёрдое (бетон)
Освещение ВПП
Постоянное
Тип: 
Аэродром
Класс аэродрома: 
Международный
Принадлежность: 
ГА
Статус: 
Действующий
Сайт: 
arhaero.ru
Страна: 
Россия
Регион: 
Архангельская область
Город: 
Архангельск
Дополнительная информация: 
Оператор: ОАО «Аэропорт Архангельск». Совместного базирования (ФАВТ и МОРФ). Нкр.=(600)м. Базируется 89-е отдельное авиационное звено 21-го корпуса ПВО в составе 2-х Ми-8МТВ-1 и 2-х Ан-26. ДПРМ: 690-"AZ/КМ", БПРМ: 334-"A/К". Визуальное маневрирование южнее АД запрещено. Военный индекс: XLAA / ЬЛАА.
Схемы аэропортов: 
Погода: 

Авиационная погода в Архангельске

Регион: 
Погода METAR: 
ULAA 271200Z VRB01MPS 3100 -SHSN OVC006CB M07/M09 Q1009 R08/490537 NOSIG RMK QBB180 QFE756/1008
Время наблюдения
2021-02-27T12:00:00Z
Температура C
-7.0
Точка росы
-9.0
Направление ветра
0
Скорость ветра (узлы)
2
Метео видимость
1.93
Явления погоды
-SHSN
Условия полета
IFR
Аэропорт подробнее: 
Прогноз TAF: 

Прогноз погоды TAF Талаги

Прогноз погоды TAF: 
TAF ULAA 261055Z 2612/2712 15005MPS 6000 FEW005 BKN016CB TEMPO 2612/2615 17004G10MPS 0500 +SHSN BKN003 BKN011CB FM261500 16005MPS 6000 FEW005 BKN016 TEMPO 2615/2621 18004MPS 2000 SHSN BR BKN004 BKN011CB FM262100 18005MPS 6000 FEW004 BKN016
Аэропорт подробнее: 
Регион: 

Найти трансфер

С помощью этой формы Вы можете найти трансфер из аэропорта Талаги в город, аэропорт или вокзал:

Карта места

Javascript is required to view this map.

Погода в аэропортах:

Авиационная погода в Мирном

Регион: 
Погода METAR: 
UERR 271200Z 25003MPS 9999 -SN NSC M26/M29 Q1019 R07/490337 NOSIG RMK QFE734/0979
Время наблюдения
2021-02-27T12:00:00Z
Температура C
-26.0
Точка росы
-29.0
Направление ветра
250
Скорость ветра (узлы)
6
Метео видимость
6.21
Явления погоды
-SN
Условия полета
VFR
Аэропорт подробнее: 

Авиационная погода в Уральске

Регион: 
Погода METAR: 
UARR 271139Z 24006MPS 4900 BR BKN003 OVC016 01/00 Q1001 R22/590145 NOSIG RMK QBB100 QFE747/0997
Время наблюдения
2021-02-27T11:39:00Z
Температура C
1.0
Точка росы
0.0
Направление ветра
240
Скорость ветра (узлы)
12
Метео видимость
3.04
Явления погоды
BR
Условия полета
LIFR
Аэропорт подробнее: 

Авиационная погода в Лаппеэнранта

Регион: 
Погода METAR: 
EFLP 301350Z AUTO 13006KT 100V170 9999 -SHSN BKN003 OVC028 00/M00 Q1018
Время наблюдения
2020-11-30T13:50:00Z
Температура C
0.0
Точка росы
0.0
Направление ветра
130
Скорость ветра (узлы)
6
Метео видимость
6.21
Явления погоды
-SHSN
Условия полета
LIFR

Авиационная погода в Атырау

Регион: 
Погода METAR: 
UATG 271200Z 22008MPS 0500 R14/0550N FG VV001 02/02 Q1010 R14/82//57 TEMPO 0200 FG VV001 RMK QBB050 QFE759/1012
Время наблюдения
2021-02-27T12:00:00Z
Температура C
2.0
Точка росы
2.0
Направление ветра
220
Скорость ветра (узлы)
16
Метео видимость
0.31
Явления погоды
FG
Условия полета
LIFR